Bloomington, IN

9:55 PM EDT on October 17, 2019 (GMT -0400)
Johnson Turtle Field | | Change Station
Active Advisory: Frost Advisory

Elev 686 ft 39.12 °N, 86.51 °W | Updated 10 minutes ago

Clear
Clear
40.1 °F
Feels Like 40 °F
N
0
Wind Variable Wind from NW
Gusts 0.0 mph

Today
High -- | Low -- °F
--% Chance of Precip.
Yesterday
High -- | Low -- °F
Precip. -- in
Pressure 30.03 in
Visibility 10.0 miles
Clouds Clear
Windchill 40 °F
Dew Point 38 °F
Humidity 91%
Rainfall 0.00 in
Snow Depth Not available.
7:57 AM 7:04 PM
Waning Gibbous, 84% visible
METAR KBMG 180053Z 00000KT 10SM CLR 06/03 A3002 RMK AO2 SLP168 T00610033
Pressure 30.03 in
Visibility 10.0 miles
Clouds Clear
Windchill 40 °F
Dew Point 38 °F
Humidity 91%
Rainfall 0.00 in
Snow Depth Not available.
7:57 AM 7:04 PM
Waning Gibbous, 84% visible
METAR KBMG 180053Z 00000KT 10SM CLR 06/03 A3002 RMK AO2 SLP168 T00610033

Get Your Daily Forecast Email!

Thanks for signing up!

Be on the lookout for a verification email in your inbox.

You'll start receiving severe weather alerts in your inbox..

×

10-Day Weather Forecast

Almanac

Astronomy

Oct. 17, 2019 Rise Set
Actual Time
Civil Twilight
Nautical Twilight
Astronomical Twilight
Moon
Length of Visible Light
Length of Day
Tomorrow will be .
, % of the Moon is Illuminated

Today's Extremes

State Highs State Lows

Community

WunderPhotos

Category 6

Welcome to Category 6. This is the collective home for Weather Underground's featured writeups by Dr. Jeff Masters (right), Bob Henson (left), Chris Burt, and other regular contributors.

Nearby

Air Quality

  Air Quality AQ Index Pollutant
Not available.

Snow Depth

Station Depth Elevation

Earthquake Activity

City Distance Mag. Time & Date
Minimum magnitude displayed is 2.5.

Coastal Water Temperatures

Place Temperature

Stations

Nearby Weather Stations

Station Location Temp. Windchill Dew Point Humidity Wind Precip. Elev Updated Type
                   

Watches & Warnings

Frost Advisory
Issued: 9:52 PM EDT Oct. 17, 2019 – National Weather Service

... Frost advisory remains in effect from 2 am to 8 am EDT
Friday...

* what... temperatures as low as 35 will result in frost
formation.

* Where... portions of central, east central, north central,
south central, southeast, southwest and west central Indiana.

* When... from 2 am to 8 am EDT Friday.

* Impacts... frost could kill sensitive outdoor vegetation if
left uncovered.

Precautionary/preparedness actions...

Take steps now to protect tender plants from the cold.